createdAt,value
2023-04-10T00:00:38.305Z,16.51
2023-04-10T00:03:06.242Z,16.48
2023-04-10T00:05:33.468Z,16.50
2023-04-10T00:08:01.007Z,16.47
2023-04-10T00:10:30.615Z,16.44
2023-04-10T00:12:58.081Z,16.43
2023-04-10T00:15:25.245Z,16.43
2023-04-10T00:17:55.450Z,16.40
2023-04-10T00:20:23.660Z,16.40
2023-04-10T00:22:50.674Z,16.39
2023-04-10T00:25:17.897Z,16.34
2023-04-10T00:27:44.806Z,16.34
2023-04-10T00:30:11.787Z,16.35
2023-04-10T00:32:38.860Z,16.35
2023-04-10T00:35:07.148Z,16.36
2023-04-10T00:37:34.181Z,16.34
2023-04-10T00:40:01.308Z,16.31
2023-04-10T00:42:28.257Z,16.29
2023-04-10T00:44:55.473Z,16.27
2023-04-10T00:47:22.769Z,16.28
2023-04-10T00:49:50.697Z,16.23
2023-04-10T00:52:17.979Z,16.24
2023-04-10T00:54:45.169Z,16.23
2023-04-10T00:57:12.174Z,16.22
2023-04-10T00:59:39.475Z,16.20
2023-04-10T01:02:06.776Z,16.20
2023-04-10T01:04:34.628Z,16.18
2023-04-10T01:07:04.704Z,16.17
2023-04-10T01:09:54.015Z,16.14
2023-04-10T01:12:43.509Z,16.09
2023-04-10T01:15:16.020Z,16.07
2023-04-10T01:18:07.722Z,16.05
2023-04-10T01:20:39.584Z,16.00
2023-04-10T01:23:33.379Z,16.00
2023-04-10T01:26:02.381Z,15.96
2023-04-10T01:29:09.817Z,15.98
2023-04-10T01:31:42.507Z,15.94
2023-04-10T01:34:20.119Z,15.95
2023-04-10T01:36:55.568Z,15.95
2023-04-10T01:39:24.234Z,15.95
2023-04-10T01:41:56.431Z,15.93
2023-04-10T01:44:36.828Z,15.90
2023-04-10T01:47:07.344Z,15.90
2023-04-10T01:49:37.491Z,15.89
2023-04-10T01:52:07.347Z,15.86
2023-04-10T01:54:35.801Z,15.86
2023-04-10T01:57:05.652Z,15.87
2023-04-10T01:59:41.605Z,15.87
2023-04-10T02:02:11.928Z,15.88
2023-04-10T02:04:39.424Z,15.89
2023-04-10T02:07:17.027Z,15.89
2023-04-10T02:10:03.079Z,15.89
2023-04-10T02:12:32.637Z,15.87
2023-04-10T02:15:05.829Z,15.89
2023-04-10T02:17:34.978Z,15.90
2023-04-10T02:20:05.742Z,15.90
2023-04-10T02:22:33.085Z,15.90
2023-04-10T02:25:00.823Z,15.92
2023-04-10T02:27:32.156Z,15.92
2023-04-10T02:29:59.819Z,15.91
2023-04-10T02:32:27.813Z,15.91
2023-04-10T02:34:56.575Z,15.91
2023-04-10T02:37:23.896Z,15.92
2023-04-10T02:39:51.731Z,15.94
2023-04-10T02:42:21.297Z,15.94
2023-04-10T02:44:49.402Z,15.94
2023-04-10T02:47:16.907Z,15.92
2023-04-10T02:49:46.150Z,15.94
2023-04-10T02:52:18.746Z,15.94
2023-04-10T02:54:47.665Z,15.92
2023-04-10T02:57:14.586Z,15.92
2023-04-10T02:59:42.044Z,15.91
2023-04-10T03:02:10.634Z,15.90
2023-04-10T03:04:39.124Z,15.91
2023-04-10T03:07:08.924Z,15.92
2023-04-10T03:09:38.369Z,15.88
2023-04-10T03:12:05.436Z,15.88
2023-04-10T03:14:32.509Z,15.88
2023-04-10T03:16:59.870Z,15.90
2023-04-10T03:19:28.229Z,15.87
2023-04-10T03:21:55.450Z,15.89
2023-04-10T03:24:22.681Z,15.89
2023-04-10T03:26:49.680Z,15.85
2023-04-10T03:29:19.260Z,15.86
2023-04-10T03:31:46.838Z,15.85
2023-04-10T03:34:14.029Z,15.85
2023-04-10T03:36:41.436Z,15.87
2023-04-10T03:39:08.332Z,15.83
2023-04-10T03:41:35.273Z,15.85
2023-04-10T03:44:04.044Z,15.82
2023-04-10T03:46:31.440Z,15.84
2023-04-10T03:48:59.577Z,15.79
2023-04-10T03:51:28.252Z,15.75
2023-04-10T03:53:56.141Z,15.74
2023-04-10T03:56:23.559Z,15.71
2023-04-10T03:58:50.850Z,15.64
2023-04-10T04:01:17.862Z,15.61
2023-04-10T04:04:00.907Z,15.60
2023-04-10T04:06:47.107Z,15.57
2023-04-10T04:09:34.353Z,15.54
2023-04-10T04:12:26.846Z,15.48
2023-04-10T04:15:02.105Z,15.42
2023-04-10T04:17:43.938Z,15.42
2023-04-10T04:20:31.260Z,15.37
2023-04-10T04:23:18.441Z,15.37
2023-04-10T04:26:05.130Z,15.35
2023-04-10T04:29:02.335Z,15.32
2023-04-10T04:31:52.712Z,15.25
2023-04-10T04:34:38.288Z,15.23
2023-04-10T04:37:43.846Z,15.14
2023-04-10T04:40:31.483Z,15.10
2023-04-10T04:43:10.904Z,15.05
2023-04-10T04:45:56.854Z,15.08
2023-04-10T04:48:46.777Z,15.05
2023-04-10T04:51:38.294Z,15.05
2023-04-10T04:54:09.963Z,15.04
2023-04-10T04:56:50.940Z,15.07
2023-04-10T04:59:53.549Z,15.02
2023-04-10T05:02:39.443Z,15.02
2023-04-10T05:05:21.072Z,14.99
2023-04-10T05:08:14.351Z,14.93
2023-04-10T05:10:59.942Z,14.92
2023-04-10T05:13:36.004Z,14.87
2023-04-10T05:16:16.580Z,14.87
2023-04-10T05:19:15.633Z,14.87
2023-04-10T05:21:56.451Z,14.87
2023-04-10T05:24:53.192Z,14.88
2023-04-10T05:27:28.684Z,14.92
2023-04-10T05:30:26.159Z,14.93
2023-04-10T05:33:35.597Z,14.95
2023-04-10T05:36:28.803Z,14.98
2023-04-10T05:39:17.444Z,15.03
2023-04-10T05:42:16.650Z,15.10
2023-04-10T05:45:00.497Z,15.16
2023-04-10T05:47:47.746Z,15.31
2023-04-10T05:50:22.994Z,15.55
2023-04-10T05:53:14.364Z,15.74
2023-04-10T05:56:02.470Z,15.93
2023-04-10T05:58:46.116Z,16.03
2023-04-10T06:01:13.640Z,16.05
2023-04-10T06:03:55.324Z,16.16
2023-04-10T06:06:24.954Z,16.28
2023-04-10T06:08:53.061Z,16.44
2023-04-10T06:11:20.322Z,16.68
2023-04-10T06:13:52.053Z,16.83
2023-04-10T06:16:22.731Z,16.93
2023-04-10T06:18:52.957Z,16.98
2023-04-10T06:21:20.247Z,17.08
2023-04-10T06:23:47.392Z,17.15
2023-04-10T06:26:14.870Z,17.27
2023-04-10T06:28:42.381Z,17.47
2023-04-10T06:31:10.139Z,17.80
2023-04-10T06:33:38.800Z,18.27
2023-04-10T06:36:08.719Z,18.69
2023-04-10T06:38:42.829Z,19.21
2023-04-10T06:41:09.867Z,19.37
2023-04-10T06:43:38.148Z,19.70
2023-04-10T06:46:05.725Z,20.07
2023-04-10T06:48:33.447Z,20.27
2023-04-10T06:51:03.226Z,20.53
2023-04-10T06:53:30.246Z,20.93
2023-04-10T06:55:57.425Z,20.73
2023-04-10T06:58:24.769Z,20.52
2023-04-10T07:00:52.028Z,20.29
2023-04-10T07:03:19.054Z,20.10
2023-04-10T07:05:46.336Z,19.92
2023-04-10T07:08:13.285Z,19.84
2023-04-10T07:10:40.189Z,19.80
2023-04-10T07:13:07.460Z,19.81
2023-04-10T07:15:34.422Z,19.77
2023-04-10T07:18:01.544Z,19.72
2023-04-10T07:20:28.806Z,19.64
2023-04-10T07:22:55.795Z,19.47
2023-04-10T07:25:22.732Z,19.45
2023-04-10T07:27:49.792Z,19.33
2023-04-10T07:30:16.825Z,19.24
2023-04-10T07:32:43.970Z,19.23
2023-04-10T07:35:11.178Z,19.23
2023-04-10T07:37:39.866Z,19.32
2023-04-10T07:40:08.620Z,19.57
2023-04-10T07:42:35.856Z,19.67
2023-04-10T07:45:02.872Z,19.77
2023-04-10T07:47:29.824Z,19.83
2023-04-10T07:49:56.942Z,19.90
2023-04-10T07:52:23.969Z,19.98
2023-04-10T07:54:51.350Z,20.03
2023-04-10T07:57:18.311Z,20.18
2023-04-10T07:59:45.508Z,20.25
2023-04-10T08:02:12.678Z,20.33
2023-04-10T08:04:39.691Z,20.43
2023-04-10T08:07:07.052Z,20.48
2023-04-10T08:09:33.975Z,20.73
2023-04-10T08:12:00.943Z,20.91
2023-04-10T08:14:27.851Z,21.05
2023-04-10T08:16:54.947Z,21.49
2023-04-10T08:19:21.949Z,21.92
2023-04-10T08:21:48.880Z,22.44
2023-04-10T08:24:16.260Z,23.05
2023-04-10T08:26:43.163Z,23.68
2023-04-10T08:29:10.165Z,24.19
2023-04-10T08:31:37.148Z,24.70
2023-04-10T08:34:04.607Z,25.09
2023-04-10T08:36:32.135Z,25.48
2023-04-10T08:38:59.093Z,25.75
2023-04-10T08:41:26.657Z,25.76
2023-04-10T08:43:53.918Z,25.82
2023-04-10T08:46:24.055Z,25.92
2023-04-10T08:49:02.821Z,26.14
2023-04-10T08:51:55.103Z,26.15
2023-04-10T08:54:32.963Z,26.10
2023-04-10T08:57:01.860Z,25.89
2023-04-10T08:59:32.348Z,25.96
2023-04-10T09:01:59.710Z,25.96
2023-04-10T09:04:27.432Z,25.87
2023-04-10T09:06:54.568Z,25.90
2023-04-10T09:09:21.563Z,25.65
2023-04-10T09:12:00.855Z,25.44
2023-04-10T09:14:34.356Z,25.38
2023-04-10T09:17:20.813Z,25.80
2023-04-10T09:19:54.587Z,26.04
2023-04-10T09:22:35.191Z,26.44
2023-04-10T09:25:04.104Z,26.59
2023-04-10T09:27:36.087Z,26.22
2023-04-10T09:30:04.668Z,25.99
2023-04-10T09:32:44.602Z,25.75
2023-04-10T09:35:13.388Z,25.83
2023-04-10T09:37:42.448Z,26.00
2023-04-10T09:40:25.269Z,26.06
2023-04-10T09:42:53.058Z,26.24
2023-04-10T09:45:20.925Z,26.29
2023-04-10T09:48:04.191Z,26.42
2023-04-10T09:50:40.369Z,26.39
2023-04-10T09:53:12.368Z,26.31
2023-04-10T09:55:39.815Z,26.16
2023-04-10T09:58:07.484Z,25.65
2023-04-10T10:00:43.650Z,25.16
2023-04-10T10:03:13.563Z,25.17
2023-04-10T10:05:53.572Z,25.06
2023-04-10T10:08:21.673Z,24.86
2023-04-10T10:10:53.919Z,24.46
2023-04-10T10:13:52.394Z,24.61
2023-04-10T10:16:35.550Z,24.51
2023-04-10T10:19:09.346Z,24.43
2023-04-10T10:21:38.461Z,24.40
2023-04-10T10:24:09.099Z,23.78
2023-04-10T10:26:39.374Z,23.72
2023-04-10T10:29:11.317Z,23.92
2023-04-10T10:31:38.962Z,24.05
2023-04-10T10:34:09.368Z,24.01
2023-04-10T10:36:37.371Z,23.98
2023-04-10T10:39:26.059Z,23.96
2023-04-10T10:42:27.842Z,23.87
2023-04-10T10:45:15.659Z,23.92
2023-04-10T10:47:47.494Z,23.73
2023-04-10T10:50:14.400Z,23.67
2023-04-10T10:52:57.635Z,23.60
2023-04-10T10:55:31.817Z,23.11
2023-04-10T10:58:01.401Z,23.09
2023-04-10T11:00:52.946Z,22.94
2023-04-10T11:03:20.062Z,23.29
2023-04-10T11:05:57.341Z,23.40
2023-04-10T11:08:33.750Z,23.79
2023-04-10T11:11:09.470Z,23.69
2023-04-10T11:13:41.123Z,23.70
2023-04-10T11:16:12.915Z,23.38
2023-04-10T11:18:55.774Z,22.81
2023-04-10T11:21:30.388Z,23.11
2023-04-10T11:23:57.629Z,22.97
2023-04-10T11:26:33.546Z,22.96
2023-04-10T11:29:04.846Z,23.01
2023-04-10T11:31:35.735Z,22.63
2023-04-10T11:34:13.403Z,22.59
2023-04-10T11:36:42.113Z,22.59
2023-04-10T11:39:14.105Z,22.71
2023-04-10T11:41:43.235Z,22.65
2023-04-10T11:44:13.504Z,22.65
2023-04-10T11:46:47.491Z,22.60
2023-04-10T11:49:26.622Z,22.67
2023-04-10T11:51:54.177Z,22.63
2023-04-10T11:54:23.666Z,22.63
2023-04-10T11:57:04.199Z,22.46
2023-04-10T11:59:33.485Z,22.17
2023-04-10T12:02:18.613Z,22.17
2023-04-10T12:04:45.728Z,22.28
2023-04-10T12:07:12.841Z,22.65
2023-04-10T12:09:39.936Z,22.80
2023-04-10T12:12:08.471Z,22.83
2023-04-10T12:14:43.154Z,22.75
2023-04-10T12:17:13.021Z,22.46
2023-04-10T12:19:40.694Z,22.32
2023-04-10T12:22:07.839Z,22.14
2023-04-10T12:24:40.983Z,22.15
2023-04-10T12:27:15.949Z,21.79
2023-04-10T12:29:43.013Z,21.61
2023-04-10T12:32:10.520Z,21.66
2023-04-10T12:34:38.091Z,21.64
2023-04-10T12:37:05.163Z,21.76
2023-04-10T12:39:32.428Z,21.96
2023-04-10T12:42:19.722Z,21.60
2023-04-10T12:45:01.123Z,21.63
2023-04-10T12:47:29.625Z,21.59
2023-04-10T12:50:08.044Z,21.64
2023-04-10T12:52:35.738Z,21.39
2023-04-10T12:55:16.833Z,21.55
2023-04-10T12:57:48.080Z,21.42
2023-04-10T13:00:17.427Z,21.31
2023-04-10T13:02:45.401Z,21.17
2023-04-10T13:05:12.690Z,21.18
2023-04-10T13:07:41.127Z,21.42
2023-04-10T13:10:09.314Z,21.36
2023-04-10T13:12:38.169Z,21.27
2023-04-10T13:15:07.714Z,21.23
2023-04-10T13:17:35.988Z,21.27
2023-04-10T13:20:03.164Z,21.17
2023-04-10T13:22:30.113Z,21.13
2023-04-10T13:24:56.989Z,21.14
2023-04-10T13:27:24.169Z,21.22
2023-04-10T13:29:51.194Z,21.14
2023-04-10T13:32:18.232Z,21.07
2023-04-10T13:34:45.313Z,20.96
2023-04-10T13:37:15.482Z,20.98
2023-04-10T13:39:43.621Z,20.74
2023-04-10T13:42:10.747Z,20.80
2023-04-10T13:44:37.678Z,20.79
2023-04-10T13:47:04.754Z,20.77
2023-04-10T13:49:31.794Z,20.65
2023-04-10T13:51:58.758Z,20.49
2023-04-10T13:54:26.631Z,20.37
2023-04-10T13:56:54.851Z,20.26
2023-04-10T13:59:22.263Z,20.49
2023-04-10T14:01:52.295Z,20.01
2023-04-10T14:04:19.771Z,19.99
2023-04-10T14:06:46.759Z,20.02
2023-04-10T14:09:14.012Z,20.01
2023-04-10T14:11:40.948Z,19.89
2023-04-10T14:14:08.215Z,19.94
2023-04-10T14:16:36.079Z,19.95
2023-04-10T14:19:03.164Z,19.88
2023-04-10T14:21:30.179Z,19.79
2023-04-10T14:23:57.388Z,19.66
2023-04-10T14:26:24.306Z,19.78
2023-04-10T14:28:51.318Z,19.86
2023-04-10T14:31:18.746Z,19.88
2023-04-10T14:33:46.025Z,19.75
2023-04-10T14:36:13.233Z,19.81
2023-04-10T14:38:40.459Z,19.62
2023-04-10T14:41:07.732Z,19.82
2023-04-10T14:43:34.800Z,19.83
2023-04-10T14:46:01.852Z,19.85
2023-04-10T14:48:28.935Z,19.71
2023-04-10T14:50:59.030Z,19.88
2023-04-10T14:53:26.126Z,19.86
2023-04-10T14:55:53.157Z,19.86
2023-04-10T14:58:20.109Z,19.79
2023-04-10T15:00:47.301Z,19.82
2023-04-10T15:03:14.453Z,19.47
2023-04-10T15:05:41.590Z,19.48
2023-04-10T15:08:08.593Z,19.51
2023-04-10T15:10:35.743Z,19.51
2023-04-10T15:13:02.688Z,19.54
2023-04-10T15:15:29.637Z,19.54
2023-04-10T15:17:56.590Z,19.58
2023-04-10T15:20:23.587Z,19.79
2023-04-10T15:22:50.560Z,19.68
2023-04-10T15:25:17.545Z,19.70
2023-04-10T15:27:44.492Z,19.58
2023-04-10T15:30:11.973Z,19.46
2023-04-10T15:32:39.045Z,19.39
2023-04-10T15:35:06.704Z,19.50
2023-04-10T15:37:35.559Z,19.57
2023-04-10T15:40:06.705Z,19.61
2023-04-10T15:42:35.000Z,19.51
2023-04-10T15:45:02.185Z,19.45
2023-04-10T15:47:29.411Z,19.44
2023-04-10T15:49:59.724Z,19.34
2023-04-10T15:52:26.767Z,19.34
2023-04-10T15:54:53.675Z,19.26
2023-04-10T15:57:20.818Z,19.26
2023-04-10T15:59:51.277Z,19.24
2023-04-10T16:02:18.265Z,19.19
2023-04-10T16:04:45.453Z,19.21
2023-04-10T16:07:12.650Z,19.25
2023-04-10T16:09:39.640Z,19.29
2023-04-10T16:12:06.705Z,19.25
2023-04-10T16:14:33.669Z,19.24
2023-04-10T16:17:01.464Z,19.35
2023-04-10T16:19:31.996Z,19.37
2023-04-10T16:21:59.042Z,19.24
2023-04-10T16:24:26.737Z,19.25
2023-04-10T16:26:54.421Z,18.90
2023-04-10T16:29:21.824Z,18.96
2023-04-10T16:31:48.874Z,18.80
2023-04-10T16:34:15.914Z,18.54
2023-04-10T16:36:43.199Z,18.54
2023-04-10T16:39:10.145Z,18.54
2023-04-10T16:41:37.208Z,18.75
2023-04-10T16:44:04.177Z,18.75
2023-04-10T16:46:33.843Z,18.49
2023-04-10T16:49:01.684Z,18.37
2023-04-10T16:51:28.954Z,18.39
2023-04-10T16:53:55.918Z,18.38
2023-04-10T16:56:22.902Z,18.46
2023-04-10T16:58:49.909Z,18.61
2023-04-10T17:01:25.640Z,18.61
2023-04-10T17:03:54.463Z,18.65
2023-04-10T17:06:21.475Z,18.65
2023-04-10T17:08:48.658Z,18.59
2023-04-10T17:11:16.503Z,18.67
2023-04-10T17:13:43.517Z,18.57
2023-04-10T17:16:10.762Z,18.35
2023-04-10T17:18:37.834Z,18.28
2023-04-10T17:21:05.069Z,18.14
2023-04-10T17:23:32.026Z,17.94
2023-04-10T17:25:59.353Z,17.96
2023-04-10T17:28:26.288Z,17.96
2023-04-10T17:30:53.192Z,18.05
2023-04-10T17:33:21.905Z,18.12
2023-04-10T17:35:51.273Z,17.86
2023-04-10T17:38:18.633Z,17.87
2023-04-10T17:40:46.077Z,17.93
2023-04-10T17:43:13.141Z,17.81
2023-04-10T17:45:40.320Z,17.91
2023-04-10T17:48:07.821Z,17.97
2023-04-10T17:50:35.661Z,18.00
2023-04-10T17:53:02.991Z,18.08
2023-04-10T17:55:29.959Z,18.06
2023-04-10T17:58:00.097Z,17.89
2023-04-10T18:00:27.087Z,17.76
2023-04-10T18:02:59.975Z,17.67
2023-04-10T18:05:30.997Z,17.56
2023-04-10T18:07:58.026Z,17.46
2023-04-10T18:10:24.976Z,17.55
2023-04-10T18:12:52.131Z,17.36
2023-04-10T18:15:19.309Z,17.38
2023-04-10T18:17:46.490Z,17.42
2023-04-10T18:20:13.684Z,17.22
2023-04-10T18:22:41.029Z,17.31
2023-04-10T18:25:08.769Z,17.29
2023-04-10T18:27:36.661Z,17.23
2023-04-10T18:30:03.800Z,17.31
2023-04-10T18:32:31.226Z,17.36
2023-04-10T18:34:58.442Z,17.41
2023-04-10T18:37:25.668Z,17.47
2023-04-10T18:39:52.832Z,17.43
2023-04-10T18:42:19.960Z,17.45
2023-04-10T18:44:47.057Z,17.55
2023-04-10T18:47:14.469Z,17.62
2023-04-10T18:49:41.509Z,17.66
2023-04-10T18:52:08.752Z,17.68
2023-04-10T18:54:36.459Z,17.70
2023-04-10T18:57:03.640Z,17.69
2023-04-10T18:59:31.990Z,17.67
2023-04-10T19:01:59.082Z,17.63
2023-04-10T19:04:26.316Z,17.58
2023-04-10T19:06:53.413Z,17.54
2023-04-10T19:09:20.546Z,17.48
2023-04-10T19:11:47.498Z,17.49
2023-04-10T19:14:14.593Z,17.51
2023-04-10T19:16:41.535Z,17.51
2023-04-10T19:19:08.471Z,17.55
2023-04-10T19:21:35.489Z,17.60
2023-04-10T19:24:02.546Z,17.57
2023-04-10T19:26:29.636Z,17.57
2023-04-10T19:28:56.798Z,17.54
2023-04-10T19:31:27.633Z,17.49
2023-04-10T19:33:54.714Z,17.57
2023-04-10T19:36:21.847Z,17.57
2023-04-10T19:38:51.253Z,17.44
2023-04-10T19:41:18.414Z,17.41
2023-04-10T19:43:45.391Z,17.35
2023-04-10T19:46:19.421Z,17.29
2023-04-10T19:48:47.399Z,17.21
2023-04-10T19:51:14.736Z,17.20
2023-04-10T19:53:42.273Z,17.26
2023-04-10T19:56:09.630Z,17.29
2023-04-10T19:58:41.143Z,17.27
2023-04-10T20:01:09.477Z,17.20
2023-04-10T20:03:37.868Z,17.26
2023-04-10T20:06:08.984Z,17.25
2023-04-10T20:08:36.908Z,17.25
2023-04-10T20:11:07.137Z,17.24
2023-04-10T20:13:34.942Z,17.24
2023-04-10T20:16:02.539Z,17.20
2023-04-10T20:18:31.060Z,17.21
2023-04-10T20:20:58.122Z,17.21
2023-04-10T20:23:25.189Z,17.20
2023-04-10T20:25:52.147Z,17.18
2023-04-10T20:28:19.244Z,17.16
2023-04-10T20:30:46.212Z,17.18
2023-04-10T20:33:13.179Z,17.19
2023-04-10T20:35:40.187Z,17.20
2023-04-10T20:38:07.281Z,17.16
2023-04-10T20:40:34.895Z,17.17
2023-04-10T20:43:01.822Z,17.18
2023-04-10T20:45:28.837Z,17.17
2023-04-10T20:47:57.619Z,17.18
2023-04-10T20:50:24.868Z,17.19
2023-04-10T20:52:51.796Z,17.16
2023-04-10T20:55:19.069Z,17.17
2023-04-10T20:57:46.143Z,17.17
2023-04-10T21:00:13.653Z,17.13
2023-04-10T21:02:40.891Z,17.15
2023-04-10T21:05:08.399Z,17.18
2023-04-10T21:07:35.775Z,17.15
2023-04-10T21:10:02.879Z,17.18
2023-04-10T21:12:30.858Z,17.19
2023-04-10T21:14:57.803Z,17.20
2023-04-10T21:17:24.784Z,17.20
2023-04-10T21:19:51.706Z,17.25
2023-04-10T21:22:18.755Z,17.25
2023-04-10T21:24:45.633Z,17.23
2023-04-10T21:27:12.576Z,17.24
2023-04-10T21:29:39.510Z,17.22
2023-04-10T21:32:06.514Z,17.20
2023-04-10T21:34:33.533Z,17.24
2023-04-10T21:37:00.608Z,17.28
2023-04-10T21:39:29.544Z,17.34
2023-04-10T21:41:56.565Z,17.39
2023-04-10T21:44:23.492Z,17.43
2023-04-10T21:46:50.559Z,17.45
2023-04-10T21:49:17.500Z,17.41
2023-04-10T21:51:44.720Z,17.44
2023-04-10T21:54:11.834Z,17.44
2023-04-10T21:56:40.972Z,17.45
2023-04-10T21:59:08.291Z,17.40
2023-04-10T22:01:35.465Z,17.35
2023-04-10T22:04:02.725Z,17.33
2023-04-10T22:06:29.752Z,17.26
2023-04-10T22:08:56.836Z,17.26
2023-04-10T22:11:23.980Z,17.29
2023-04-10T22:13:52.813Z,17.27
2023-04-10T22:16:20.594Z,17.27
2023-04-10T22:18:47.536Z,17.29
2023-04-10T22:21:14.529Z,17.28
2023-04-10T22:23:41.634Z,17.26
2023-04-10T22:26:08.632Z,17.25
2023-04-10T22:28:35.614Z,17.29
2023-04-10T22:31:02.625Z,17.28
2023-04-10T22:33:33.544Z,17.24
2023-04-10T22:36:00.588Z,17.30
2023-04-10T22:38:27.518Z,17.36
2023-04-10T22:40:55.479Z,17.39
2023-04-10T22:43:22.414Z,17.42
2023-04-10T22:45:49.341Z,17.41
2023-04-10T22:48:16.330Z,17.41
2023-04-10T22:50:43.325Z,17.42
2023-04-10T22:53:13.329Z,17.42
2023-04-10T22:55:41.068Z,17.39
2023-04-10T22:58:07.996Z,17.43
2023-04-10T23:00:35.278Z,17.43
2023-04-10T23:03:02.447Z,17.42
2023-04-10T23:05:29.726Z,17.42
2023-04-10T23:07:58.463Z,17.40
2023-04-10T23:10:26.823Z,17.42
2023-04-10T23:12:53.812Z,17.38
2023-04-10T23:15:20.841Z,17.39
2023-04-10T23:17:47.819Z,17.38
2023-04-10T23:20:14.841Z,17.36
2023-04-10T23:22:41.771Z,17.35
2023-04-10T23:25:08.781Z,17.30
2023-04-10T23:27:35.743Z,17.28
2023-04-10T23:30:04.325Z,17.26
2023-04-10T23:32:31.601Z,17.24
2023-04-10T23:34:58.646Z,17.21
2023-04-10T23:37:26.783Z,17.18
2023-04-10T23:39:53.752Z,17.19
2023-04-10T23:42:22.144Z,17.16
2023-04-10T23:44:49.055Z,17.13
2023-04-10T23:47:16.978Z,17.10
2023-04-10T23:49:43.863Z,17.09
2023-04-10T23:52:12.419Z,17.03
2023-04-10T23:54:39.991Z,17.02
2023-04-10T23:57:07.501Z,17.00
2023-04-10T23:59:34.405Z,16.93
